Time;durP1;ratioP1;P1;durP2;ratioP2;P2;SDS_P1;SDS_P2;PMS_P1;PMS_P2;Temp;Humidity;BMP_temperature;BMP_pressure;BME280_temperature;BME280_humidity;BME280_pressure;Samples;Min_cycle;Max_cycle;Signal;HPM_P1;HPM_P2
2024/03/11 00:00:19;;;;;;;2.90;2.60;;;6.50;99.90;;;;;;5012067;28;20208;-81
2024/03/11 00:02:46;;;;;;;3.20;2.90;;;6.50;99.90;;;;;;5026421;28;20259;-81
2024/03/11 00:05:13;;;;;;;2.80;2.20;;;6.50;99.90;;;;;;5018400;28;20240;-81
2024/03/11 00:07:41;;;;;;;3.63;3.13;;;6.60;99.90;;;;;;5028413;28;20236;-80
2024/03/11 00:10:12;;;;;;;3.40;3.10;;;6.50;99.90;;;;;;5024796;28;20234;-81
2024/03/11 00:12:40;;;;;;;3.00;2.70;;;6.50;99.90;;;;;;5039392;28;20203;-81
2024/03/11 00:15:12;;;;;;;3.10;2.55;;;6.50;99.90;;;;;;5023048;28;20216;-80
2024/03/11 00:17:39;;;;;;;2.90;2.60;;;6.40;99.90;;;;;;5008281;28;20208;-80
2024/03/11 00:20:07;;;;;;;3.55;3.25;;;6.50;99.90;;;;;;5038851;28;20292;-80
2024/03/11 00:22:36;;;;;;;3.83;3.38;;;6.50;99.90;;;;;;5022926;28;20280;-81
2024/03/11 00:25:03;;;;;;;4.25;3.00;;;6.40;99.90;;;;;;5024280;28;20201;-80
2024/03/11 00:27:30;;;;;;;3.85;3.53;;;6.50;99.90;;;;;;5025484;28;20208;-80
2024/03/11 00:29:57;;;;;;;3.25;2.95;;;6.50;99.90;;;;;;5012718;28;20212;-80
2024/03/11 00:32:26;;;;;;;3.40;3.10;;;6.50;99.90;;;;;;5030135;28;20299;-80
2024/03/11 00:34:52;;;;;;;6.07;3.00;;;6.60;99.90;;;;;;5029045;28;20193;-81
2024/03/11 00:37:20;;;;;;;4.20;3.80;;;6.40;99.90;;;;;;5034505;28;20260;-81
2024/03/11 00:39:49;;;;;;;3.83;3.30;;;6.60;99.90;;;;;;5028781;28;20253;-81
2024/03/11 00:42:18;;;;;;;3.72;2.90;;;6.50;99.90;;;;;;5035951;28;20283;-82
2024/03/11 00:44:46;;;;;;;3.40;3.10;;;6.50;99.90;;;;;;5007093;28;20205;-81
2024/03/11 00:47:13;;;;;;;3.22;2.92;;;6.40;99.90;;;;;;5028765;28;20499;-81
2024/03/11 00:49:42;;;;;;;3.78;3.42;;;6.50;99.90;;;;;;5027767;28;20657;-81
2024/03/11 00:52:09;;;;;;;3.40;3.10;;;6.50;99.90;;;;;;5028181;28;20199;-81
2024/03/11 00:54:36;;;;;;;2.80;2.55;;;6.50;99.90;;;;;;5012613;28;20201;-81
2024/03/11 00:57:05;;;;;;;3.55;3.25;;;6.40;99.90;;;;;;5030173;28;20209;-81
2024/03/11 00:59:31;;;;;;;3.15;2.85;;;6.50;99.90;;;;;;5042600;28;20200;-81
2024/03/11 01:01:59;;;;;;;3.17;2.88;;;6.50;99.90;;;;;;5029767;28;20236;-81
2024/03/11 01:04:27;;;;;;;2.90;2.70;;;6.50;99.90;;;;;;5028094;28;20231;-81
2024/03/11 01:06:55;;;;;;;3.35;2.85;;;6.50;99.90;;;;;;5018972;28;20336;-81
2024/03/11 01:09:22;;;;;;;3.10;2.65;;;6.40;99.90;;;;;;5021284;28;20626;-82
2024/03/11 01:11:50;;;;;;;2.83;2.63;;;6.40;99.90;;;;;;5030631;28;20234;-81
2024/03/11 01:14:17;;;;;;;2.50;2.30;;;6.60;99.90;;;;;;5028948;28;20201;-83
2024/03/11 01:16:44;;;;;;;3.20;3.00;;;6.40;99.90;;;;;;5019063;28;20202;-80
2024/03/11 01:19:11;;;;;;;3.00;2.70;;;6.40;99.90;;;;;;5021334;28;20207;-81
2024/03/11 01:21:38;;;;;;;3.90;3.30;;;6.30;99.90;;;;;;5090415;27;20203;-80
2024/03/11 01:24:10;;;;;;;2.63;2.42;;;6.40;99.90;;;;;;5018561;28;20204;-80
2024/03/11 01:26:37;;;;;;;2.80;2.60;;;6.30;99.90;;;;;;5029479;28;20208;-80
2024/03/11 01:29:04;;;;;;;3.05;2.85;;;6.30;99.90;;;;;;5018859;28;20292;-81
2024/03/11 01:31:31;;;;;;;3.28;2.97;;;6.20;99.90;;;;;;5033937;28;20625;-80
2024/03/11 01:33:59;;;;;;;3.28;2.65;;;6.20;99.90;;;;;;5028685;28;20212;-81
2024/03/11 01:36:28;;;;;;;3.33;2.67;;;6.20;99.90;;;;;;5025393;28;20254;-80
2024/03/11 01:38:55;;;;;;;2.13;2.03;;;6.10;99.90;;;;;;5081390;27;20238;-80
2024/03/11 01:41:24;;;;;;;2.88;2.58;;;5.90;99.90;;;;;;5029946;28;20679;-76
2024/03/11 01:43:50;;;;;;;3.47;2.60;;;6.00;99.90;;;;;;5036388;28;20529;-77
2024/03/11 01:46:19;;;;;;;2.40;2.20;;;6.00;99.90;;;;;;5022124;28;20222;-79
2024/03/11 01:48:46;;;;;;;3.45;2.72;;;6.00;99.90;;;;;;5017388;28;20233;-80
2024/03/11 01:51:14;;;;;;;1.70;1.60;;;6.00;99.90;;;;;;5028841;28;20614;-79
2024/03/11 01:53:41;;;;;;;3.65;2.38;;;6.00;99.90;;;;;;5026260;28;20208;-79
2024/03/11 01:56:07;;;;;;;3.33;2.65;;;6.00;99.90;;;;;;5037276;28;20578;-81
2024/03/11 01:58:40;;;;;;;2.30;2.20;;;5.90;99.90;;;;;;5027144;28;20711;-82
2024/03/11 02:01:07;;;;;;;2.58;2.30;;;5.70;99.90;;;;;;5018560;28;20219;-80
2024/03/11 02:03:36;;;;;;;2.50;2.15;;;5.90;99.90;;;;;;5019990;28;20201;-80
2024/03/11 02:06:03;;;;;;;2.25;2.05;;;5.70;99.90;;;;;;5044041;28;20204;-79
2024/03/11 02:08:30;;;;;;;2.30;2.10;;;5.70;99.90;;;;;;5026226;28;20296;-80
2024/03/11 02:10:57;;;;;;;1.77;1.67;;;5.70;99.90;;;;;;5028565;28;20216;-81
2024/03/11 02:13:24;;;;;;;2.10;1.90;;;5.70;99.90;;;;;;5028353;28;20213;-81
2024/03/11 02:15:53;;;;;;;2.38;2.08;;;5.80;99.90;;;;;;5020620;28;20205;-79
2024/03/11 02:18:21;;;;;;;2.70;2.15;;;5.70;99.90;;;;;;5021721;28;20658;-81
2024/03/11 02:20:50;;;;;;;2.15;2.00;;;5.60;99.90;;;;;;5038245;28;20195;-79
2024/03/11 02:23:20;;;;;;;2.72;2.10;;;5.70;99.90;;;;;;5028071;28;20201;-79
2024/03/11 02:25:48;;;;;;;2.17;1.98;;;5.70;99.90;;;;;;5020741;28;20665;-79
2024/03/11 02:28:15;;;;;;;1.77;1.67;;;5.70;99.90;;;;;;5025862;28;20295;-80
2024/03/11 02:30:43;;;;;;;2.45;2.05;;;5.80;99.90;;;;;;5010688;28;20217;-82
2024/03/11 02:33:11;;;;;;;2.28;2.00;;;5.80;99.90;;;;;;5029288;28;20209;-79
2024/03/11 02:35:39;;;;;;;2.40;2.20;;;5.80;99.90;;;;;;5035578;28;20207;-79
2024/03/11 02:38:08;;;;;;;3.22;2.67;;;5.70;99.90;;;;;;5049412;27;20198;-80
2024/03/11 02:40:39;;;;;;;2.17;1.88;;;5.80;99.90;;;;;;5020020;28;20201;-79
2024/03/11 02:43:06;;;;;;;2.33;1.95;;;5.80;99.90;;;;;;5028838;28;20204;-79
2024/03/11 02:45:34;;;;;;;2.03;1.88;;;5.80;99.90;;;;;;5024147;28;20764;-79
2024/03/11 02:48:02;;;;;;;1.60;1.50;;;5.60;99.90;;;;;;5040158;28;20565;-80
2024/03/11 02:50:31;;;;;;;2.13;1.67;;;5.70;99.90;;;;;;5028969;28;20212;-79
2024/03/11 02:52:59;;;;;;;2.38;2.17;;;5.80;99.90;;;;;;5036123;28;20204;-79
2024/03/11 02:55:29;;;;;;;2.97;2.25;;;5.60;99.90;;;;;;5018619;28;20263;-82
2024/03/11 02:57:57;;;;;;;1.80;1.70;;;5.60;99.90;;;;;;5016391;28;20212;-80
2024/03/11 03:00:25;;;;;;;2.05;1.95;;;5.60;99.90;;;;;;5033182;28;20189;-80
2024/03/11 03:02:52;;;;;;;3.17;1.90;;;5.60;99.90;;;;;;5023125;28;20208;-80
2024/03/11 03:05:19;;;;;;;1.88;1.60;;;5.50;99.90;;;;;;5028972;28;20587;-80
2024/03/11 03:07:47;;;;;;;2.50;2.10;;;5.60;99.90;;;;;;5038468;28;20244;-80
2024/03/11 03:10:15;;;;;;;2.03;1.92;;;5.70;99.90;;;;;;5011144;28;20225;-81
2024/03/11 03:12:43;;;;;;;1.92;1.83;;;5.60;99.90;;;;;;5032367;28;20609;-80
2024/03/11 03:15:12;;;;;;;2.35;2.15;;;5.50;99.90;;;;;;5028974;28;20205;-81
2024/03/11 03:17:39;;;;;;;1.80;1.70;;;5.60;99.90;;;;;;5039630;28;20207;-80
2024/03/11 03:20:09;;;;;;;1.60;1.50;;;5.50;99.90;;;;;;5015514;28;20714;-80
2024/03/11 03:22:36;;;;;;;2.88;2.25;;;5.40;99.90;;;;;;5016646;28;20224;-81
2024/03/11 03:25:04;;;;;;;2.55;2.10;;;5.50;99.90;;;;;;5028358;28;20204;-80
2024/03/11 03:27:31;;;;;;;1.75;1.65;;;5.40;99.90;;;;;;5024683;28;20220;-80
2024/03/11 03:29:59;;;;;;;1.75;1.65;;;5.30;99.90;;;;;;5035450;28;20201;-80
2024/03/11 03:32:27;;;;;;;1.80;1.70;;;5.30;99.90;;;;;;5024996;28;20211;-80
2024/03/11 03:34:55;;;;;;;2.35;2.03;;;5.20;99.90;;;;;;5019339;28;20583;-80
2024/03/11 03:37:23;;;;;;;2.17;1.83;;;5.20;99.90;;;;;;5027559;28;20708;-80
2024/03/11 03:39:50;;;;;;;1.92;1.80;;;5.20;99.90;;;;;;5048382;28;20687;-81
2024/03/11 03:42:22;;;;;;;2.20;1.95;;;5.30;99.90;;;;;;5054021;27;20201;-80
2024/03/11 03:44:51;;;;;;;3.40;1.98;;;5.80;99.90;;;;;;5028826;28;20596;-81
2024/03/11 03:47:18;;;;;;;3.38;2.30;;;5.10;99.90;;;;;;5028105;28;20211;-80
2024/03/11 03:49:47;;;;;;;2.25;2.10;;;5.20;99.90;;;;;;5032633;27;20203;-80
2024/03/11 03:52:15;;;;;;;1.70;1.60;;;5.20;99.90;;;;;;5098442;27;20282;-80
2024/03/11 03:54:42;;;;;;;2.20;2.00;;;5.20;99.90;;;;;;5020203;28;20619;-81
2024/03/11 03:57:10;;;;;;;2.55;2.35;;;5.20;99.90;;;;;;5020879;28;20517;-81
2024/03/11 03:59:36;;;;;;;2.22;2.00;;;5.20;99.90;;;;;;5029647;28;20700;-80
2024/03/11 04:02:03;;;;;;;1.83;1.73;;;5.20;99.90;;;;;;5032475;28;20225;-79
2024/03/11 04:04:30;;;;;;;2.00;1.80;;;5.10;99.90;;;;;;5026147;28;20204;-80
2024/03/11 04:06:58;;;;;;;2.25;2.05;;;5.10;99.90;;;;;;5046881;28;20235;-80
2024/03/11 04:09:25;;;;;;;2.85;2.20;;;5.00;99.90;;;;;;5043146;28;20279;-80
2024/03/11 04:11:54;;;;;;;6.63;1.88;;;5.00;99.90;;;;;;5038106;28;20546;-80
2024/03/11 04:14:21;;;;;;;2.75;1.98;;;5.00;99.90;;;;;;5025510;28;20203;-81
2024/03/11 04:16:47;;;;;;;2.10;2.00;;;5.00;99.90;;;;;;5025964;28;20667;-81
2024/03/11 04:19:14;;;;;;;2.33;2.15;;;4.90;99.90;;;;;;5022517;28;20291;-81
2024/03/11 04:21:41;;;;;;;2.25;2.05;;;4.90;99.90;;;;;;5081273;27;20194;-82
2024/03/11 04:24:11;;;;;;;2.47;2.28;;;4.80;99.90;;;;;;5046572;27;20254;-81
2024/03/11 04:26:38;;;;;;;2.25;1.98;;;4.90;99.90;;;;;;5065921;27;20222;-81
2024/03/11 04:29:06;;;;;;;2.22;2.00;;;4.90;99.90;;;;;;5023056;28;20206;-81
2024/03/11 04:31:33;;;;;;;2.70;2.50;;;4.80;99.90;;;;;;5050903;27;20304;-81
2024/03/11 04:34:00;;;;;;;2.17;1.77;;;4.80;99.90;;;;;;5066242;27;20232;-81
2024/03/11 04:36:27;;;;;;;2.40;2.20;;;4.80;99.90;;;;;;5087862;27;20362;-81
2024/03/11 04:38:54;;;;;;;2.45;1.98;;;4.80;99.90;;;;;;5061094;27;20236;-81
2024/03/11 04:41:22;;;;;;;2.42;2.20;;;4.70;99.90;;;;;;5050353;27;20211;-81
2024/03/11 04:43:49;;;;;;;2.70;2.35;;;4.60;99.90;;;;;;5021709;28;20677;-81
2024/03/11 04:46:17;;;;;;;2.58;2.38;;;4.60;99.90;;;;;;5046994;28;20214;-81
2024/03/11 04:48:45;;;;;;;2.85;2.15;;;4.60;99.90;;;;;;5072832;27;20678;-83
2024/03/11 04:51:12;;;;;;;3.55;2.50;;;4.60;99.90;;;;;;5088293;27;20222;-81
2024/03/11 04:53:39;;;;;;;2.55;2.30;;;4.60;99.90;;;;;;5055235;27;20596;-81
2024/03/11 04:56:06;;;;;;;2.78;2.53;;;4.60;99.90;;;;;;5029503;28;20198;-81
2024/03/11 04:58:34;;;;;;;5.22;2.35;;;4.70;99.90;;;;;;5024745;28;20552;-81
2024/03/11 05:01:01;;;;;;;3.58;2.72;;;4.70;99.90;;;;;;5030767;28;20572;-80
2024/03/11 05:03:28;;;;;;;2.47;2.28;;;4.70;99.90;;;;;;5040493;28;20215;-81
2024/03/11 05:05:55;;;;;;;3.03;2.70;;;4.80;99.90;;;;;;5029969;28;20234;-81
2024/03/11 05:08:22;;;;;;;2.92;2.55;;;4.60;99.90;;;;;;5030799;28;20660;-81
2024/03/11 05:10:50;;;;;;;2.80;2.60;;;4.60;99.90;;;;;;5011873;28;20224;-80
2024/03/11 05:13:17;;;;;;;4.45;2.40;;;4.50;99.90;;;;;;5027185;28;20239;-80
2024/03/11 05:15:47;;;;;;;2.53;2.33;;;4.50;99.90;;;;;;5042187;28;20286;-80
2024/03/11 05:18:15;;;;;;;4.97;2.63;;;4.40;99.90;;;;;;5110318;27;20200;-81
2024/03/11 05:20:41;;;;;;;2.53;2.33;;;4.40;99.90;;;;;;5066863;27;20205;-82
2024/03/11 05:23:09;;;;;;;2.50;2.30;;;4.50;99.90;;;;;;5029450;28;20729;-80
2024/03/11 05:25:35;;;;;;;2.58;2.38;;;4.40;99.90;;;;;;5034789;28;20636;-81
2024/03/11 05:28:03;;;;;;;3.15;2.85;;;4.40;99.90;;;;;;5050255;27;20200;-81
2024/03/11 05:30:29;;;;;;;2.83;2.63;;;4.30;99.90;;;;;;5020250;27;20216;-81
2024/03/11 05:32:58;;;;;;;3.10;2.25;;;4.50;99.90;;;;;;5025197;28;20238;-81
2024/03/11 05:35:24;;;;;;;3.65;2.47;;;4.40;99.90;;;;;;5015929;28;20292;-81
2024/03/11 05:37:51;;;;;;;2.72;2.53;;;4.40;99.90;;;;;;5013574;28;20200;-81
2024/03/11 05:40:19;;;;;;;2.90;2.70;;;4.40;99.90;;;;;;5021640;28;20622;-81
2024/03/11 05:42:48;;;;;;;2.72;2.53;;;4.30;99.90;;;;;;5023841;28;20205;-81
2024/03/11 05:45:15;;;;;;;3.03;2.72;;;4.40;99.90;;;;;;5022914;28;20211;-82
2024/03/11 05:47:42;;;;;;;3.70;2.83;;;4.40;99.90;;;;;;5009343;28;20215;-82
2024/03/11 05:50:12;;;;;;;2.60;2.40;;;4.40;99.90;;;;;;5037957;28;20215;-83
2024/03/11 05:52:44;;;;;;;2.22;2.10;;;4.60;99.90;;;;;;5036920;28;20657;-82
2024/03/11 05:55:12;;;;;;;2.55;2.35;;;4.30;99.90;;;;;;5056395;27;20225;-82
2024/03/11 05:57:40;;;;;;;2.83;2.63;;;4.30;99.90;;;;;;5060480;27;20236;-82
2024/03/11 06:00:11;;;;;;;2.60;2.40;;;4.40;99.90;;;;;;5053689;27;20196;-77
2024/03/11 06:02:38;;;;;;;2.80;2.40;;;4.40;99.90;;;;;;5054036;27;20725;-77
2024/03/11 06:05:06;;;;;;;2.45;2.20;;;4.50;99.90;;;;;;5052307;27;20203;-76
2024/03/11 06:07:34;;;;;;;2.40;2.20;;;4.60;99.90;;;;;;5045884;27;20196;-76
2024/03/11 06:10:01;;;;;;;2.63;2.42;;;4.50;99.90;;;;;;5043368;27;20329;-77
2024/03/11 06:12:29;;;;;;;3.28;2.97;;;4.50;99.90;;;;;;5053430;28;20226;-77
2024/03/11 06:14:56;;;;;;;3.00;2.80;;;4.60;99.90;;;;;;5068833;27;20223;-77
2024/03/11 06:17:22;;;;;;;2.33;2.13;;;4.60;99.90;;;;;;5030382;27;20216;-77
2024/03/11 06:19:49;;;;;;;3.05;2.75;;;4.60;99.90;;;;;;5069882;28;20203;-78
2024/03/11 06:22:16;;;;;;;2.53;2.10;;;4.50;99.90;;;;;;5048401;28;20691;-76
2024/03/11 06:24:45;;;;;;;3.10;2.80;;;4.60;99.90;;;;;;5029377;28;20211;-76
2024/03/11 06:27:14;;;;;;;2.83;2.47;;;4.70;99.90;;;;;;5028727;28;20199;-77
2024/03/11 06:29:42;;;;;;;2.70;2.50;;;4.80;99.90;;;;;;5025057;28;20207;-77
2024/03/11 06:32:09;;;;;;;3.15;2.95;;;4.70;99.90;;;;;;5005833;28;20221;-76
2024/03/11 06:34:37;;;;;;;3.40;2.88;;;4.90;99.90;;;;;;5032266;28;20204;-78
2024/03/11 06:37:04;;;;;;;2.65;2.45;;;4.80;99.90;;;;;;5068444;28;20213;-77
2024/03/11 06:39:31;;;;;;;2.85;2.60;;;4.90;99.90;;;;;;5044579;28;20246;-78
2024/03/11 06:41:59;;;;;;;4.10;3.15;;;4.90;99.90;;;;;;5014845;28;20294;-78
2024/03/11 06:44:27;;;;;;;2.40;2.20;;;5.00;99.90;;;;;;5019397;28;20253;-76
2024/03/11 06:46:55;;;;;;;3.10;2.40;;;5.10;99.90;;;;;;5035524;28;20710;-75
2024/03/11 06:49:22;;;;;;;2.60;2.40;;;5.20;99.90;;;;;;5032930;28;20200;-78
2024/03/11 06:51:50;;;;;;;2.42;2.22;;;5.30;99.90;;;;;;5028360;28;20228;-76
2024/03/11 06:54:17;;;;;;;3.95;3.65;;;5.40;99.90;;;;;;5015735;28;20604;-77
2024/03/11 06:56:44;;;;;;;7.45;6.53;;;5.60;99.90;;;;;;5032030;28;20201;-84
2024/03/11 06:59:12;;;;;;;4.68;4.25;;;5.60;99.90;;;;;;5024724;28;20204;-76
2024/03/11 07:01:39;;;;;;;4.43;2.78;;;5.60;99.90;;;;;;5025399;28;20231;-75
2024/03/11 07:04:06;;;;;;;4.53;2.70;;;5.70;99.90;;;;;;5023677;28;20632;-78
2024/03/11 07:06:32;;;;;;;3.70;3.40;;;5.90;99.90;;;;;;5023789;28;20196;-77
2024/03/11 07:09:00;;;;;;;2.70;2.50;;;6.00;99.90;;;;;;5018986;28;20208;-77
2024/03/11 07:11:27;;;;;;;5.13;2.55;;;6.00;99.90;;;;;;5022116;28;20235;-76
2024/03/11 07:13:54;;;;;;;2.95;2.50;;;6.00;99.90;;;;;;5114312;28;20205;-76
2024/03/11 07:16:23;;;;;;;2.67;2.30;;;6.20;99.90;;;;;;5016842;28;20206;-76
2024/03/11 07:18:53;;;;;;;1.70;1.60;;;6.20;99.90;;;;;;5023954;28;20292;-75
2024/03/11 07:21:20;;;;;;;3.22;1.52;;;6.30;99.90;;;;;;5041166;27;20208;-76
2024/03/11 07:23:48;;;;;;;2.90;1.88;;;6.60;99.90;;;;;;5023557;28;20292;-76
2024/03/11 07:26:15;;;;;;;2.78;2.20;;;6.50;99.90;;;;;;5017779;28;20206;-75
2024/03/11 07:28:42;;;;;;;1.95;1.85;;;6.50;99.90;;;;;;5028410;28;20204;-76
2024/03/11 07:31:09;;;;;;;3.72;1.30;;;6.60;99.90;;;;;;5030546;28;20256;-75
2024/03/11 07:33:39;;;;;;;1.50;1.40;;;6.70;99.90;;;;;;5047752;27;20224;-76
2024/03/11 07:36:07;;;;;;;2.25;1.92;;;6.70;99.90;;;;;;5076527;27;20399;-75
2024/03/11 07:38:34;;;;;;;1.63;1.52;;;6.80;99.90;;;;;;5052409;27;20205;-76
2024/03/11 07:41:01;;;;;;;2.13;1.92;;;6.90;99.90;;;;;;5028001;28;20220;-75
2024/03/11 07:43:28;;;;;;;1.40;1.30;;;7.00;99.90;;;;;;5049628;27;20204;-75
2024/03/11 07:45:54;;;;;;;1.63;1.50;;;7.00;99.90;;;;;;5042987;27;20204;-75
2024/03/11 07:48:22;;;;;;;1.73;1.60;;;7.10;99.90;;;;;;5017195;28;20197;-74
2024/03/11 07:50:50;;;;;;;4.47;3.45;;;7.20;99.90;;;;;;5029340;28;20212;-75
2024/03/11 07:53:18;;;;;;;1.65;1.55;;;7.40;99.90;;;;;;5025101;28;20224;-74
2024/03/11 07:55:44;;;;;;;2.05;1.30;;;7.50;99.90;;;;;;5024403;28;20197;-74
2024/03/11 07:58:11;;;;;;;2.20;1.60;;;7.50;99.90;;;;;;5027128;28;20292;-74
2024/03/11 08:00:38;;;;;;;1.27;1.20;;;7.70;99.90;;;;;;5023091;28;20204;-75
2024/03/11 08:03:06;;;;;;;1.80;1.50;;;7.90;99.90;;;;;;5027128;28;21151;-75
2024/03/11 08:05:34;;;;;;;1.30;1.20;;;7.90;99.90;;;;;;5070002;27;20225;-75
2024/03/11 08:08:03;;;;;;;1.27;1.17;;;7.80;99.90;;;;;;5038816;27;20847;-75
2024/03/11 08:10:30;;;;;;;2.43;1.30;;;7.70;99.90;;;;;;5047190;27;20564;-75
2024/03/11 08:12:57;;;;;;;1.50;1.40;;;7.80;99.90;;;;;;5068910;27;20651;-75
2024/03/11 08:15:24;;;;;;;2.30;1.70;;;7.80;99.90;;;;;;5038733;27;20627;-75
2024/03/11 08:17:52;;;;;;;1.13;1.10;;;8.10;99.90;;;;;;5025495;28;20979;-75
2024/03/11 08:20:20;;;;;;;1.00;1.00;;;8.30;99.90;;;;;;5050143;27;20876;-75
2024/03/11 08:22:48;;;;;;;1.40;1.30;;;8.50;99.90;;;;;;5026346;28;20619;-75
2024/03/11 08:25:20;;;;;;;0.97;0.87;;;8.60;99.90;;;;;;5027134;28;20738;-75
2024/03/11 08:27:48;;;;;;;0.90;0.90;;;8.80;99.90;;;;;;5022986;28;20630;-75
2024/03/11 08:30:15;;;;;;;2.30;1.50;;;9.10;99.90;;;;;;5021457;28;20632;-75
2024/03/11 08:32:42;;;;;;;1.07;1.07;;;9.00;99.90;;;;;;5026674;28;20686;-75
2024/03/11 08:35:09;;;;;;;1.43;1.20;;;8.90;99.90;;;;;;5028134;28;20624;-75
2024/03/11 08:37:36;;;;;;;1.93;1.33;;;9.10;99.90;;;;;;5020949;28;20627;-75
2024/03/11 08:40:04;;;;;;;4.27;1.37;;;9.20;99.90;;;;;;5017963;28;20671;-75
2024/03/11 08:42:32;;;;;;;3.27;0.97;;;9.40;99.90;;;;;;5026613;28;20696;-75
2024/03/11 08:44:59;;;;;;;1.60;0.70;;;9.50;99.50;;;;;;5021545;28;20624;-75
2024/03/11 08:47:27;;;;;;;0.80;0.80;;;9.30;98.30;;;;;;5027078;28;20627;-75
2024/03/11 08:49:54;;;;;;;0.67;0.67;;;9.50;99.30;;;;;;5019854;28;20636;-75
2024/03/11 08:52:21;;;;;;;0.70;0.70;;;9.60;98.80;;;;;;5027058;28;20651;-75
2024/03/11 08:54:50;;;;;;;0.70;0.70;;;9.60;98.50;;;;;;5023294;28;20723;-75
2024/03/11 08:57:17;;;;;;;1.07;0.97;;;9.80;98.70;;;;;;5019267;28;20632;-75
2024/03/11 08:59:46;;;;;;;1.17;0.87;;;9.80;98.70;;;;;;5022343;28;20632;-75
2024/03/11 09:02:14;;;;;;;0.80;0.70;;;9.70;97.80;;;;;;5017037;28;20624;-75
2024/03/11 09:04:41;;;;;;;0.93;0.93;;;9.80;98.10;;;;;;5021297;28;20632;-75
2024/03/11 09:07:09;;;;;;;0.80;0.80;;;9.90;98.40;;;;;;5025667;28;20631;-75
2024/03/11 09:09:36;;;;;;;1.00;0.73;;;9.90;97.50;;;;;;5030649;27;21220;-75
2024/03/11 09:12:05;;;;;;;3.97;0.90;;;10.00;97.20;;;;;;5025909;28;20651;-75
2024/03/11 09:14:32;;;;;;;0.73;0.73;;;10.30;96.90;;;;;;5022558;28;20681;-75
2024/03/11 09:17:01;;;;;;;1.10;0.90;;;10.20;96.70;;;;;;5045550;27;20640;-77
2024/03/11 09:19:30;;;;;;;1.43;0.80;;;10.30;97.00;;;;;;5064196;27;20629;-78
2024/03/11 09:21:58;;;;;;;0.80;0.80;;;10.20;96.40;;;;;;5082971;27;20636;-78
2024/03/11 09:24:25;;;;;;;0.53;0.53;;;10.10;96.60;;;;;;5040369;27;20626;-78
2024/03/11 09:26:52;;;;;;;0.93;0.63;;;10.30;96.50;;;;;;5059845;27;20686;-78
2024/03/11 09:29:20;;;;;;;1.20;1.10;;;10.40;95.70;;;;;;5055805;27;20641;-79
2024/03/11 09:31:47;;;;;;;0.70;0.70;;;10.70;95.80;;;;;;5060924;27;20665;-78
2024/03/11 09:34:16;;;;;;;1.00;1.00;;;10.60;95.50;;;;;;5057681;27;20683;-78
2024/03/11 09:36:44;;;;;;;0.60;0.60;;;10.60;95.70;;;;;;5060493;27;20625;-78
2024/03/11 09:39:12;;;;;;;0.77;0.77;;;10.60;95.40;;;;;;5036932;27;20734;-79
2024/03/11 09:41:41;;;;;;;1.17;0.70;;;10.50;93.70;;;;;;5033375;27;20741;-77
2024/03/11 09:44:15;;;;;;;1.27;0.87;;;10.30;94.00;;;;;;5014995;28;20621;-77
2024/03/11 09:46:43;;;;;;;1.23;0.80;;;10.40;94.20;;;;;;5023752;28;20622;-78
2024/03/11 09:49:11;;;;;;;0.83;0.83;;;10.50;94.60;;;;;;5027922;28;20929;-78
2024/03/11 09:51:41;;;;;;;1.00;1.00;;;10.50;94.40;;;;;;5036720;27;20630;-78
2024/03/11 09:54:13;;;;;;;7.00;0.80;;;10.80;94.90;;;;;;5031041;28;20658;-78
2024/03/11 09:56:40;;;;;;;1.03;0.63;;;11.00;94.20;;;;;;5027256;28;21170;-78
2024/03/11 09:59:09;;;;;;;0.77;0.70;;;11.10;94.20;;;;;;5031442;28;20638;-77
2024/03/11 10:01:42;;;;;;;1.37;0.90;;;10.90;92.70;;;;;;5058933;27;20986;-78
2024/03/11 10:04:09;;;;;;;1.33;0.80;;;10.70;92.50;;;;;;5045430;27;20626;-78
2024/03/11 10:06:39;;;;;;;0.80;0.80;;;10.90;93.70;;;;;;5026722;28;20626;-78
2024/03/11 10:09:09;;;;;;;0.83;0.80;;;11.10;93.10;;;;;;5028480;28;20633;-78
2024/03/11 10:11:37;;;;;;;1.80;0.83;;;10.90;92.20;;;;;;5047844;27;20678;-78
2024/03/11 10:14:20;;;;;;;2.87;0.67;;;11.00;93.10;;;;;;5053321;27;20665;-78
2024/03/11 10:16:48;;;;;;;1.10;1.00;;;11.00;92.10;;;;;;5041729;27;20623;-78
2024/03/11 10:19:14;;;;;;;3.23;2.33;;;11.10;92.10;;;;;;5058203;27;20629;-77
2024/03/11 10:21:42;;;;;;;3.20;1.70;;;10.90;91.90;;;;;;5046643;27;20634;-77
2024/03/11 10:24:15;;;;;;;3.83;1.60;;;10.80;92.90;;;;;;5026265;28;20641;-77
2024/03/11 10:26:42;;;;;;;1.87;1.30;;;10.90;92.80;;;;;;5023402;28;20680;-78
2024/03/11 10:29:11;;;;;;;0.70;0.60;;;10.90;92.80;;;;;;5025823;28;20945;-78
2024/03/11 10:31:42;;;;;;;2.40;0.90;;;11.10;92.90;;;;;;5019437;28;20677;-78
2024/03/11 10:34:12;;;;;;;1.27;0.77;;;11.40;92.20;;;;;;5036705;28;20658;-78
2024/03/11 10:36:40;;;;;;;1.33;0.60;;;11.60;91.60;;;;;;5049978;28;21175;-78
2024/03/11 10:39:17;;;;;;;1.00;0.90;;;11.50;91.90;;;;;;5026762;28;20633;-78
2024/03/11 10:41:47;;;;;;;1.00;0.87;;;11.20;90.80;;;;;;5039739;28;21032;-78
2024/03/11 10:44:16;;;;;;;2.17;0.90;;;11.20;91.50;;;;;;5065832;28;20722;-78
2024/03/11 10:46:43;;;;;;;0.87;0.60;;;11.60;90.80;;;;;;5023285;28;21185;-78
2024/03/11 10:49:13;;;;;;;0.70;0.70;;;11.70;91.00;;;;;;5072393;28;20734;-78
2024/03/11 10:51:45;;;;;;;1.47;0.90;;;11.80;90.80;;;;;;5060880;27;20650;-78
2024/03/11 10:54:22;;;;;;;0.90;0.80;;;12.00;91.10;;;;;;5030022;28;20874;-78
2024/03/11 10:56:53;;;;;;;1.07;0.97;;;12.30;90.60;;;;;;5029103;28;20642;-79
2024/03/11 10:59:22;;;;;;;1.47;0.90;;;12.30;90.00;;;;;;5022060;28;21095;-78
2024/03/11 11:01:57;;;;;;;0.93;0.80;;;12.60;90.10;;;;;;5045182;27;20720;-78
2024/03/11 11:04:28;;;;;;;0.80;0.77;;;12.70;89.90;;;;;;5023548;28;20737;-78
2024/03/11 11:06:58;;;;;;;0.83;0.80;;;12.70;88.10;;;;;;5023339;28;21167;-78
2024/03/11 11:09:27;;;;;;;1.00;1.00;;;12.70;88.90;;;;;;5057923;27;20669;-78
2024/03/11 11:11:56;;;;;;;1.43;1.13;;;12.80;89.80;;;;;;5030185;27;21281;-78
2024/03/11 11:14:24;;;;;;;1.40;1.10;;;13.20;87.70;;;;;;5068622;27;20652;-79
2024/03/11 11:16:52;;;;;;;0.93;0.90;;;13.20;86.30;;;;;;5030033;28;20940;-77
2024/03/11 11:19:23;;;;;;;1.93;1.00;;;13.00;85.40;;;;;;5027660;28;20630;-78
2024/03/11 11:21:51;;;;;;;4.20;1.10;;;12.90;87.10;;;;;;5026116;28;20652;-77
2024/03/11 11:24:29;;;;;;;1.00;1.00;;;12.60;86.90;;;;;;5029853;28;20686;-77
2024/03/11 11:26:58;;;;;;;1.70;0.90;;;12.20;86.30;;;;;;5029579;28;20986;-78
2024/03/11 11:29:27;;;;;;;0.97;0.93;;;12.10;87.50;;;;;;5037232;27;20717;-75
2024/03/11 11:32:05;;;;;;;1.17;1.07;;;12.10;87.30;;;;;;5029941;28;20652;-78
2024/03/11 11:34:53;;;;;;;2.67;2.27;;;12.10;85.10;;;;;;5027517;28;20660;-77
2024/03/11 11:37:39;;;;;;;2.83;2.63;;;11.80;85.10;;;;;;5021250;28;20631;-81
2024/03/11 11:40:32;;;;;;;1.00;0.90;;;11.40;84.90;;;;;;5025484;28;20631;-78
2024/03/11 11:43:00;;;;;;;1.77;1.47;;;11.40;86.30;;;;;;5024498;28;20716;-77
2024/03/11 11:45:47;;;;;;;2.63;2.20;;;11.50;88.50;;;;;;5020681;28;20616;-79
2024/03/11 11:48:15;;;;;;;0.87;0.70;;;11.50;89.50;;;;;;5037924;27;20626;-79
2024/03/11 11:50:45;;;;;;;1.10;0.83;;;11.50;84.50;;;;;;5022363;28;21164;-79
2024/03/11 11:53:14;;;;;;;0.63;0.63;;;11.50;86.30;;;;;;5022323;28;20783;-79
2024/03/11 11:55:50;;;;;;;1.80;1.00;;;11.60;85.40;;;;;;5026419;27;20730;-79
2024/03/11 11:58:18;;;;;;;0.90;0.80;;;11.60;84.70;;;;;;5032772;27;20641;-79
2024/03/11 12:00:45;;;;;;;0.77;0.70;;;11.80;85.30;;;;;;5026620;28;20634;-79
2024/03/11 12:03:27;;;;;;;2.20;1.20;;;11.80;85.50;;;;;;5027424;28;21553;-78
2024/03/11 12:06:18;;;;;;;0.90;0.60;;;11.70;84.60;;;;;;5019042;28;20646;-78
2024/03/11 12:08:47;;;;;;;1.50;1.00;;;11.70;86.60;;;;;;5025546;28;20623;-78
2024/03/11 12:11:17;;;;;;;0.97;0.70;;;11.80;87.80;;;;;;5027008;28;21204;-78
2024/03/11 12:13:46;;;;;;;2.50;1.13;;;12.00;87.80;;;;;;5026725;28;20658;-79
2024/03/11 12:16:23;;;;;;;1.23;0.80;;;12.20;88.80;;;;;;5026555;28;20625;-79
2024/03/11 12:18:59;;;;;;;2.20;1.10;;;12.20;84.60;;;;;;5031194;28;20645;-78
2024/03/11 12:21:28;;;;;;;1.90;1.80;;;12.30;84.50;;;;;;5034243;28;21193;-80
2024/03/11 12:23:56;;;;;;;0.80;0.80;;;12.30;86.00;;;;;;5030843;28;20970;-79
2024/03/11 12:26:26;;;;;;;0.73;0.63;;;12.30;85.70;;;;;;5030030;28;20613;-79
2024/03/11 12:29:05;;;;;;;0.80;0.80;;;12.30;84.60;;;;;;5024236;28;20641;-78
2024/03/11 12:31:34;;;;;;;0.60;0.60;;;12.30;83.90;;;;;;5025884;28;20625;-79
2024/03/11 12:34:02;;;;;;;0.83;0.83;;;12.30;82.10;;;;;;5027287;28;20702;-79
2024/03/11 12:36:30;;;;;;;0.77;0.77;;;12.20;83.30;;;;;;5024826;28;21190;-79
2024/03/11 12:38:58;;;;;;;0.50;0.40;;;12.20;84.30;;;;;;5026883;28;21046;-79
2024/03/11 12:41:38;;;;;;;0.50;0.50;;;12.20;84.00;;;;;;5021998;28;20721;-78
2024/03/11 12:44:18;;;;;;;0.70;0.57;;;12.30;81.90;;;;;;5027706;28;20630;-79
2024/03/11 12:46:47;;;;;;;0.50;0.50;;;12.40;84.10;;;;;;5027652;28;20641;-79
2024/03/11 12:49:14;;;;;;;0.70;0.60;;;12.60;82.10;;;;;;5030434;28;20622;-79
2024/03/11 12:51:41;;;;;;;0.80;0.50;;;12.80;83.10;;;;;;5029316;28;20645;-79
2024/03/11 12:54:19;;;;;;;0.80;0.70;;;12.90;79.90;;;;;;5030883;28;20682;-78
2024/03/11 12:57:04;;;;;;;0.80;0.70;;;13.10;79.00;;;;;;5024712;28;20632;-78
2024/03/11 12:59:33;;;;;;;0.77;0.70;;;13.20;79.20;;;;;;5027059;28;20683;-78